TAPA

Details ICAO TAPA (ANU)
Name Antigua - VC Bird Intl
Region Antigua and Barbuda
Timezone America/Antigua (UTC-4.0)
Plans Departing 317
Arriving 364
Stats Elevation 62 ft / 19 m (AMSL)
Location 17.136000° -61.793900°
Runways 1
Magnetic Variation 14.785° W
Sunrise 2018-10-16 10:01:25 UTC / 2018-10-16 06:01:25 Local
Sunset 2018-10-16 21:46:18 UTC / 2018-10-16 17:46:18 Local
Advertisement - Login to hide

Runways

ID Width Length Bearing (true/mag) Surface Threshold Overrun Markings Lighting
07 145 ft / 44 m 9,978 ft / 3,041 m 58.24° / 73.03° ASPHALT 1,640 ft / 500 m 0 ft / 0 m PREC-APP CENTERLINE EDGE THRESHOLD
25 145 ft / 44 m 9,978 ft / 3,041 m 238.25° / 253.03° ASPHALT 981 ft / 299 m 0 ft / 0 m PREC-APP CENTERLINE EDGE THRESHOLD

Map

Weather


0- 5 10 15 20 25 30 35+ Temperature / °C

Clouds and Precipitation
Forecast for 2018-10-17 00:00 UTC. Updated 5 hours ago

Ground ~20,000 ft ~40,000 ft Winds

METAR

TAPA 170200Z 10014KT 9999 SCT020 27/23 Q1014 NOSIG

TAF

TAF TAF TAPA 161700Z 1618/1718 08013KT 9999 SCT018 TEMPO 1618/1718 10015G25KT SHRA FEW012CB BKN014 BKN038 PROB40 TEMPO 1702/1712 4800 TSRA

Frequencies

Ground 121.90 MHz VC Bird Ground
Approach 119.10 MHz VC Bird Approach
Tower 118.20 MHz VC Bird Tower
Recorded 114.50 MHz VC Bird ATIS
Warning: Do not use this data for real-world aviation or navigation. No guarantee of current accuracy is given.